ADDS METAR Data INFO
IDs: Format: Raw Decoded Include TAF

Data at: 0328 UTC 17 Jul 2018

METAR for:KILN (Wilmington Arpt, OH, US)
Text:KILN 170254Z AUTO 00000KT 10SM CLR 22/22 A2994 RMK AO2 RAE09 SLP128 P0001 60004 T02170217 53006
Temperature: 21.7°C ( 71°F)
Dewpoint: 21.7°C ( 71°F) [RH = 100%]
Pressure (altimeter):29.94 inches Hg (1014.0 mb) [Sea level pressure: 1012.8 mb]
Winds:calm
Visibility:10 or more sm (16+ km)
Ceiling:at least 12,000 feet AGL
Clouds:sky clear below 12,000 feet AGL
QC Flag:automated observation with no human augmentation